Mountain Rest, SC

7:57 AM EST on December 09, 2016 (GMT -0500)
Beaver Creek Drive | | Change Station

Elev 1000 ft 34.78 °N, 83.09 °W | Updated 8 minutes ago

Clear
Clear
24.1 °F
Feels Like 24 °F
N
1.9
Wind Variable Wind from NE
Gusts 3.7 mph

Today
High -- | Low -- °F
--% Chance of Precip.
Yesterday
High -- | Low -- °F
Precip. -- in
Pressure 30.38 in
Visibility 10.0 miles
Clouds Clear
Windchill 24 °F
Dew Point 17 °F
Humidity 73%
Rainfall 0.00 in
Snow Depth Not available.
7:29 AM 5:21 PM
Waxing Gibbous, 73% visible
METAR KTOC 091235Z AUTO 00000KT 10SM CLR M02/M06 A3038 RMK AO2 T10171057
Pressure 30.38 in
Visibility 10.0 miles
Clouds Clear
Windchill 24 °F
Dew Point 17 °F
Humidity 73%
Rainfall 0.00 in
Snow Depth Not available.
7:29 AM 5:21 PM
Waxing Gibbous, 73% visible
METAR KTOC 091235Z AUTO 00000KT 10SM CLR M02/M06 A3038 RMK AO2 T10171057

10-Day Weather Forecast

Almanac

Astronomy

Dec. 09, 2016 Rise Set
Actual Time
Civil Twilight
Nautical Twilight
Astronomical Twilight
Moon
Length of Visible Light
Length of Day
Tomorrow will be .
, % of the Moon is Illuminated

Today's Extremes

State Highs State Lows

Community

WunderPhotos

Upload Photos

1,956,407 photos uploaded!

WunderBlog® & News

Nearby

Air Quality

  Air Quality AQ Index Pollutant
Not available.

Snow Depth

Station Depth Elevation

Earthquake Activity

City Distance Mag. Time & Date
Minimum magnitude displayed is 2.5.

Coastal Water Temperatures

Place Temperature

Stations

Nearby Weather Stations

Station Location Temp. Windchill Dew Point Humidity Wind Precip. Elev Updated Type
                   

Watches & Warnings

There are currently no watches in effect.